createdAt,value
2019-06-01T00:02:20.643Z,9.90
2019-06-01T00:04:49.530Z,9.80
2019-06-01T00:07:18.410Z,9.80
2019-06-01T00:09:47.324Z,9.80
2019-06-01T00:12:16.154Z,9.70
2019-06-01T00:14:46.010Z,9.70
2019-06-01T00:17:14.859Z,9.70
2019-06-01T00:19:44.049Z,9.60
2019-06-01T00:22:12.890Z,9.60
2019-06-01T00:24:41.751Z,9.60
2019-06-01T00:27:11.052Z,9.50
2019-06-01T00:29:40.596Z,9.50
2019-06-01T00:32:09.810Z,9.50
2019-06-01T00:34:38.665Z,9.50
2019-06-01T00:37:07.446Z,9.50
2019-06-01T00:39:36.292Z,9.40
2019-06-01T00:42:05.206Z,9.40
2019-06-01T00:44:34.000Z,9.30
2019-06-01T00:47:02.825Z,9.30
2019-06-01T00:49:31.669Z,9.30
2019-06-01T00:52:00.426Z,9.20
2019-06-01T00:54:29.592Z,9.20
2019-06-01T00:56:58.418Z,9.20
2019-06-01T00:59:27.486Z,9.20
2019-06-01T01:01:56.246Z,9.10
2019-06-01T01:04:25.014Z,9.10
2019-06-01T01:06:54.800Z,9.10
2019-06-01T01:09:23.742Z,9.20
2019-06-01T01:11:53.339Z,9.20
2019-06-01T01:14:22.143Z,9.20
2019-06-01T01:16:51.701Z,9.20
2019-06-01T01:19:20.550Z,9.10
2019-06-01T01:21:52.030Z,9.10
2019-06-01T01:24:21.010Z,9.10
2019-06-01T01:26:50.524Z,9.10
2019-06-01T01:29:19.513Z,9.00
2019-06-01T01:31:49.165Z,9.00
2019-06-01T01:34:18.174Z,8.90
2019-06-01T01:36:47.621Z,8.90
2019-06-01T01:39:16.501Z,8.90
2019-06-01T01:41:45.357Z,8.80
2019-06-01T01:44:14.210Z,8.80
2019-06-01T01:46:43.342Z,8.80
2019-06-01T01:49:12.136Z,8.80
2019-06-01T01:51:40.906Z,8.70
2019-06-01T01:54:10.027Z,8.70
2019-06-01T01:56:38.794Z,8.70
2019-06-01T01:59:07.570Z,8.60
2019-06-01T02:01:36.695Z,8.60
2019-06-01T02:04:05.607Z,8.60
2019-06-01T02:06:34.381Z,8.60
2019-06-01T02:09:03.227Z,8.60
2019-06-01T02:11:32.361Z,8.60
2019-06-01T02:14:02.070Z,8.60
2019-06-01T02:16:31.354Z,8.60
2019-06-01T02:19:00.545Z,8.50
2019-06-01T02:21:29.473Z,8.50
2019-06-01T02:23:59.272Z,8.50
2019-06-01T02:26:28.461Z,8.40
2019-06-01T02:28:57.577Z,8.50
2019-06-01T02:31:40.565Z,8.50
2019-06-01T02:33:58.559Z,8.50
2019-06-01T02:36:27.456Z,8.50
2019-06-01T02:38:56.573Z,8.50
2019-06-01T02:41:25.486Z,8.40
2019-06-01T02:43:54.691Z,8.40
2019-06-01T02:46:23.715Z,8.30
2019-06-01T02:48:52.475Z,8.30
2019-06-01T02:51:21.261Z,8.30
2019-06-01T02:53:50.035Z,8.20
2019-06-01T02:56:18.809Z,8.20
2019-06-01T02:58:47.872Z,8.10
2019-06-01T03:01:55.977Z,8.10
2019-06-01T03:04:14.420Z,8.10
2019-06-01T03:06:44.195Z,8.10
2019-06-01T03:09:13.545Z,8.10
2019-06-01T03:11:42.971Z,8.10
2019-06-01T03:14:12.999Z,8.10
2019-06-01T03:16:43.117Z,8.00
2019-06-01T03:19:14.185Z,8.00
2019-06-01T03:21:47.371Z,8.00
2019-06-01T03:24:16.125Z,7.90
2019-06-01T03:26:46.957Z,7.90
2019-06-01T03:29:20.379Z,7.90
2019-06-01T03:31:49.356Z,7.90
2019-06-01T03:34:18.330Z,7.90
2019-06-01T03:36:47.609Z,7.90
2019-06-01T03:39:16.593Z,7.90
2019-06-01T03:41:45.794Z,7.90
2019-06-01T03:44:14.637Z,7.90
2019-06-01T03:46:43.414Z,8.00
2019-06-01T03:49:12.254Z,8.00
2019-06-01T03:51:41.024Z,8.00
2019-06-01T03:54:10.817Z,8.00
2019-06-01T03:56:39.661Z,8.10
2019-06-01T03:59:09.342Z,8.10
2019-06-01T04:01:38.334Z,8.10
2019-06-01T04:04:07.287Z,8.10
2019-06-01T04:06:36.230Z,8.10
2019-06-01T04:09:07.813Z,8.20
2019-06-01T04:11:36.867Z,8.20
2019-06-01T04:14:07.594Z,8.20
2019-06-01T04:16:36.745Z,8.30
2019-06-01T04:19:06.037Z,8.40
2019-06-01T04:21:35.010Z,8.40
2019-06-01T04:24:04.072Z,8.60
2019-06-01T04:26:32.975Z,8.70
2019-06-01T04:29:02.308Z,8.80
2019-06-01T04:31:31.174Z,8.90
2019-06-01T04:33:59.945Z,9.10
2019-06-01T04:36:28.782Z,9.20
2019-06-01T04:38:57.848Z,9.40
2019-06-01T04:41:26.605Z,9.50
2019-06-01T04:43:55.722Z,9.60
2019-06-01T04:46:25.366Z,9.80
2019-06-01T04:48:54.332Z,10.10
2019-06-01T04:51:23.212Z,10.40
2019-06-01T04:53:52.250Z,10.80
2019-06-01T04:56:21.109Z,11.30
2019-06-01T04:58:49.900Z,12.20
2019-06-01T05:01:18.717Z,13.30
2019-06-01T05:03:47.625Z,14.30
2019-06-01T05:06:16.462Z,15.40
2019-06-01T05:08:45.273Z,16.30
2019-06-01T05:11:15.568Z,16.90
2019-06-01T05:13:44.830Z,17.40
2019-06-01T05:16:14.863Z,18.20
2019-06-01T05:18:44.338Z,18.90
2019-06-01T05:21:13.130Z,19.60
2019-06-01T05:23:42.285Z,20.20
2019-06-01T05:26:11.073Z,20.90
2019-06-01T05:28:39.926Z,21.50
2019-06-01T05:31:12.550Z,22.10
2019-06-01T05:33:39.301Z,22.50
2019-06-01T05:36:08.119Z,22.80
2019-06-01T05:38:37.014Z,22.90
2019-06-01T05:41:05.871Z,22.80
2019-06-01T05:43:34.694Z,22.70
2019-06-01T05:46:03.621Z,23.00
2019-06-01T05:48:32.386Z,23.50
2019-06-01T05:51:01.173Z,24.40
2019-06-01T05:53:29.946Z,25.20
2019-06-01T05:55:58.734Z,25.90
2019-06-01T05:58:29.338Z,26.70
2019-06-01T06:00:58.242Z,27.60
2019-06-01T06:03:39.996Z,28.10
2019-06-01T06:05:57.541Z,28.40
2019-06-01T06:08:26.375Z,28.40
2019-06-01T06:10:55.196Z,27.80
2019-06-01T06:13:24.351Z,27.70
2019-06-01T06:15:53.198Z,27.70
2019-06-01T06:18:22.034Z,27.50
2019-06-01T06:20:50.836Z,27.60
2019-06-01T06:23:20.555Z,27.70
2019-06-01T06:25:49.757Z,27.60
2019-06-01T06:28:18.781Z,28.00
2019-06-01T06:30:47.821Z,28.40
2019-06-01T06:33:17.374Z,28.80
2019-06-01T06:35:46.333Z,29.90
2019-06-01T06:38:15.712Z,31.40
2019-06-01T06:40:44.658Z,33.30
2019-06-01T06:43:20.122Z,34.80
2019-06-01T06:45:44.870Z,36.30
2019-06-01T06:48:14.826Z,37.30
2019-06-01T06:50:43.786Z,37.80
2019-06-01T06:53:24.471Z,38.90
2019-06-01T06:55:43.253Z,40.00
2019-06-01T06:58:12.181Z,40.90
2019-06-01T07:00:41.047Z,41.20
2019-06-01T07:03:09.939Z,41.50
2019-06-01T07:05:38.721Z,42.20
2019-06-01T07:08:07.526Z,42.70
2019-06-01T07:10:36.386Z,43.30
2019-06-01T07:13:05.322Z,43.60
2019-06-01T07:15:34.137Z,44.40
2019-06-01T07:18:03.118Z,44.70
2019-06-01T07:20:32.032Z,45.10
2019-06-01T07:23:00.848Z,45.80
2019-06-01T07:25:29.881Z,45.90
2019-06-01T07:27:58.645Z,45.90
2019-06-01T07:30:28.420Z,46.10
2019-06-01T07:32:57.304Z,46.20
2019-06-01T07:35:26.390Z,46.10
2019-06-01T07:37:55.205Z,46.00
2019-06-01T07:40:24.770Z,45.60
2019-06-01T07:42:53.930Z,46.10
2019-06-01T07:45:22.974Z,46.50
2019-06-01T07:47:52.015Z,46.70
2019-06-01T07:50:21.899Z,47.10
2019-06-01T07:52:50.797Z,47.30
2019-06-01T07:55:19.677Z,47.90
2019-06-01T07:57:48.577Z,48.30
2019-06-01T08:00:17.513Z,49.20
2019-06-01T08:02:46.422Z,49.40
2019-06-01T08:05:15.349Z,49.60
2019-06-01T08:07:44.334Z,49.80
2019-06-01T08:10:13.261Z,49.80
2019-06-01T08:12:42.115Z,49.70
2019-06-01T08:15:11.550Z,47.30
2019-06-01T08:17:40.356Z,47.50
2019-06-01T08:20:09.551Z,48.60
2019-06-01T08:22:38.474Z,49.40
2019-06-01T08:25:07.454Z,48.20
2019-06-01T08:27:36.306Z,49.70
2019-06-01T08:30:05.875Z,50.40
2019-06-01T08:32:34.747Z,50.40
2019-06-01T08:35:09.065Z,50.50
2019-06-01T08:37:34.094Z,51.20
2019-06-01T08:40:03.245Z,51.40
2019-06-01T08:42:32.007Z,51.60
2019-06-01T08:45:01.619Z,52.50
2019-06-01T08:47:31.829Z,51.60
2019-06-01T08:50:00.929Z,51.30
2019-06-01T08:52:30.407Z,52.00
2019-06-01T08:54:59.717Z,52.10
2019-06-01T08:57:28.667Z,52.20
2019-06-01T08:59:57.532Z,51.60
2019-06-01T09:02:26.721Z,52.20
2019-06-01T09:04:55.532Z,52.70
2019-06-01T09:07:24.830Z,53.20
2019-06-01T09:09:53.697Z,51.90
2019-06-01T09:12:22.469Z,52.70
2019-06-01T09:14:51.259Z,52.20
2019-06-01T09:17:20.100Z,53.40
2019-06-01T09:19:48.922Z,53.20
2019-06-01T09:22:17.870Z,54.00
2019-06-01T09:24:46.653Z,54.50
2019-06-01T09:27:15.438Z,54.40
2019-06-01T09:29:44.889Z,52.90
2019-06-01T09:32:14.157Z,53.40
2019-06-01T09:34:43.010Z,54.20
2019-06-01T09:37:11.829Z,54.20
2019-06-01T09:39:40.714Z,55.20
2019-06-01T09:42:09.872Z,55.00
2019-06-01T09:44:38.974Z,54.70
2019-06-01T09:47:08.002Z,54.80
2019-06-01T09:49:38.018Z,54.90
2019-06-01T09:52:07.058Z,54.70
2019-06-01T09:54:36.412Z,54.40
2019-06-01T09:57:06.039Z,55.20
2019-06-01T09:59:35.985Z,56.00
2019-06-01T10:02:05.461Z,55.90
2019-06-01T10:04:34.449Z,55.60
2019-06-01T10:07:03.459Z,54.10
2019-06-01T10:09:33.588Z,54.20
2019-06-01T10:12:02.798Z,54.10
2019-06-01T10:14:32.124Z,53.90
2019-06-01T10:17:01.014Z,53.60
2019-06-01T10:19:30.636Z,53.20
2019-06-01T10:21:59.705Z,52.20
2019-06-01T10:24:28.549Z,52.70
2019-06-01T10:26:57.453Z,52.80
2019-06-01T10:29:26.657Z,53.00
2019-06-01T10:31:55.549Z,53.30
2019-06-01T10:34:24.322Z,54.20
2019-06-01T10:36:53.186Z,55.00
2019-06-01T10:39:21.966Z,55.30
2019-06-01T10:41:51.432Z,54.70
2019-06-01T10:44:20.390Z,55.10
2019-06-01T10:46:49.254Z,56.00
2019-06-01T10:49:18.036Z,54.10
2019-06-01T10:51:46.911Z,53.00
2019-06-01T10:54:15.714Z,52.90
2019-06-01T10:56:44.573Z,52.60
2019-06-01T10:59:13.493Z,52.90
2019-06-01T11:01:42.766Z,52.10
2019-06-01T11:04:11.719Z,52.40
2019-06-01T11:06:45.725Z,53.70
2019-06-01T11:09:11.567Z,54.30
2019-06-01T11:11:41.181Z,53.90
2019-06-01T11:14:10.116Z,53.70
2019-06-01T11:16:41.711Z,53.60
2019-06-01T11:19:10.943Z,54.00
2019-06-01T11:21:39.770Z,55.20
2019-06-01T11:24:08.646Z,55.70
2019-06-01T11:26:37.684Z,54.10
2019-06-01T11:29:06.502Z,54.00
2019-06-01T11:31:35.980Z,53.60
2019-06-01T11:34:04.940Z,53.60
2019-06-01T11:36:34.252Z,52.30
2019-06-01T11:39:03.922Z,52.10
2019-06-01T11:41:34.451Z,51.90
2019-06-01T11:44:03.513Z,52.00
2019-06-01T11:46:32.330Z,51.90
2019-06-01T11:49:01.202Z,51.50
2019-06-01T11:51:30.241Z,52.20
2019-06-01T11:53:59.041Z,52.10
2019-06-01T11:56:28.097Z,52.30
2019-06-01T11:58:57.149Z,52.60
2019-06-01T12:01:26.001Z,53.10
2019-06-01T12:03:54.798Z,52.90
2019-06-01T12:06:23.732Z,53.00
2019-06-01T12:08:52.535Z,51.70
2019-06-01T12:11:21.348Z,51.80
2019-06-01T12:13:50.855Z,52.20
2019-06-01T12:16:19.730Z,51.70
2019-06-01T12:18:48.564Z,51.50
2019-06-01T12:21:17.621Z,51.70
2019-06-01T12:23:47.615Z,51.20
2019-06-01T12:26:17.092Z,49.60
2019-06-01T12:28:47.804Z,48.70
2019-06-01T12:31:16.854Z,47.30
2019-06-01T12:33:46.398Z,46.20
2019-06-01T12:36:15.471Z,45.30
2019-06-01T12:38:51.500Z,44.20
2019-06-01T12:41:21.253Z,43.10
2019-06-01T12:44:08.057Z,42.40
2019-06-01T12:46:37.393Z,41.50
2019-06-01T12:49:07.066Z,40.20
2019-06-01T12:51:36.158Z,39.40
2019-06-01T12:54:05.725Z,38.90
2019-06-01T12:56:34.625Z,37.70
2019-06-01T12:59:03.880Z,37.30
2019-06-01T13:01:33.217Z,36.60
2019-06-01T13:04:02.170Z,36.20
2019-06-01T13:06:31.345Z,35.50
2019-06-01T13:09:00.410Z,35.10
2019-06-01T13:11:29.386Z,34.80
2019-06-01T13:13:58.211Z,34.10
2019-06-01T13:16:27.082Z,33.50
2019-06-01T13:18:55.895Z,33.00
2019-06-01T13:21:27.615Z,32.40
2019-06-01T13:23:55.527Z,32.10
2019-06-01T13:26:24.481Z,31.80
2019-06-01T13:28:53.418Z,31.50
2019-06-01T13:31:22.267Z,31.30
2019-06-01T13:33:52.357Z,30.90
2019-06-01T13:36:21.601Z,30.60
2019-06-01T13:38:50.859Z,30.50
2019-06-01T13:41:19.835Z,30.50
2019-06-01T13:43:49.509Z,30.50
2019-06-01T13:46:18.406Z,30.30
2019-06-01T13:48:47.475Z,30.20
2019-06-01T13:51:16.668Z,30.00
2019-06-01T13:53:46.311Z,29.90
2019-06-01T13:56:15.565Z,29.60
2019-06-01T13:58:44.430Z,29.60
2019-06-01T14:01:13.353Z,29.40
2019-06-01T14:03:42.215Z,29.10
2019-06-01T14:06:10.998Z,29.10
2019-06-01T14:08:39.854Z,29.10
2019-06-01T14:11:08.654Z,29.20
2019-06-01T14:13:37.498Z,29.30
2019-06-01T14:16:06.375Z,29.40
2019-06-01T14:18:35.171Z,29.30
2019-06-01T14:21:04.055Z,29.40
2019-06-01T14:23:32.854Z,29.40
2019-06-01T14:26:01.713Z,29.40
2019-06-01T14:28:30.599Z,29.30
2019-06-01T14:30:59.506Z,29.30
2019-06-01T14:33:28.309Z,29.20
2019-06-01T14:35:57.250Z,29.10
2019-06-01T14:38:26.259Z,29.20
2019-06-01T14:40:55.201Z,29.10
2019-06-01T14:43:24.209Z,29.00
2019-06-01T14:45:54.212Z,29.00
2019-06-01T14:48:24.261Z,29.00
2019-06-01T14:50:53.797Z,28.90
2019-06-01T14:53:22.749Z,29.00
2019-06-01T14:55:51.755Z,28.90
2019-06-01T14:58:20.613Z,28.80
2019-06-01T15:00:50.261Z,28.80
2019-06-01T15:03:19.133Z,28.80
2019-06-01T15:05:48.225Z,28.70
2019-06-01T15:08:17.278Z,28.60
2019-06-01T15:10:46.323Z,28.50
2019-06-01T15:13:16.365Z,28.60
2019-06-01T15:15:45.154Z,28.50
2019-06-01T15:18:16.086Z,28.50
2019-06-01T15:20:44.875Z,28.50
2019-06-01T15:23:13.653Z,28.40
2019-06-01T15:25:42.517Z,28.40
2019-06-01T15:28:11.369Z,28.40
2019-06-01T15:30:40.349Z,28.30
2019-06-01T15:33:09.193Z,28.20
2019-06-01T15:35:38.374Z,28.10
2019-06-01T15:38:07.157Z,27.80
2019-06-01T15:40:36.033Z,27.80
2019-06-01T15:43:04.980Z,27.80
2019-06-01T15:45:33.994Z,27.80
2019-06-01T15:48:02.793Z,27.70
2019-06-01T15:50:31.566Z,27.70
2019-06-01T15:53:01.379Z,27.60
2019-06-01T15:55:31.581Z,27.50
2019-06-01T15:58:00.724Z,27.40
2019-06-01T16:00:29.773Z,27.40
2019-06-01T16:02:58.976Z,27.40
2019-06-01T16:05:27.977Z,27.30
2019-06-01T16:07:57.141Z,27.30
2019-06-01T16:10:26.041Z,27.20
2019-06-01T16:12:55.318Z,27.20
2019-06-01T16:15:24.234Z,27.10
2019-06-01T16:17:53.701Z,27.00
2019-06-01T16:20:22.562Z,27.00
2019-06-01T16:22:51.482Z,27.00
2019-06-01T16:25:20.334Z,26.90
2019-06-01T16:27:49.203Z,26.80
2019-06-01T16:30:18.136Z,26.80
2019-06-01T16:32:46.911Z,26.70
2019-06-01T16:35:16.038Z,26.70
2019-06-01T16:37:44.838Z,26.50
2019-06-01T16:40:13.954Z,26.50
2019-06-01T16:42:42.802Z,26.40
2019-06-01T16:45:11.746Z,26.40
2019-06-01T16:47:40.745Z,26.40
2019-06-01T16:50:10.229Z,26.30
2019-06-01T16:52:39.040Z,26.30
2019-06-01T16:55:08.586Z,26.30
2019-06-01T16:57:37.452Z,26.30
2019-06-01T17:00:08.147Z,26.30
2019-06-01T17:02:37.326Z,26.20
2019-06-01T17:05:07.274Z,26.20
2019-06-01T17:07:36.548Z,26.20
2019-06-01T17:10:22.663Z,26.10
2019-06-01T17:12:36.253Z,26.00
2019-06-01T17:15:05.605Z,26.00
2019-06-01T17:17:34.581Z,26.00
2019-06-01T17:20:03.589Z,26.00
2019-06-01T17:22:32.454Z,25.90
2019-06-01T17:25:01.834Z,25.90
2019-06-01T17:27:30.835Z,25.80
2019-06-01T17:30:00.353Z,25.80
2019-06-01T17:32:30.258Z,25.70
2019-06-01T17:34:59.084Z,25.70
2019-06-01T17:37:28.110Z,25.60
2019-06-01T17:39:57.048Z,25.50
2019-06-01T17:42:25.970Z,25.30
2019-06-01T17:44:55.183Z,25.20
2019-06-01T17:47:27.056Z,25.00
2019-06-01T17:49:54.799Z,24.70
2019-06-01T17:52:23.701Z,24.50
2019-06-01T17:54:52.702Z,24.20
2019-06-01T17:57:21.810Z,24.00
2019-06-01T17:59:50.589Z,23.80
2019-06-01T18:02:19.537Z,23.60
2019-06-01T18:04:48.328Z,23.40
2019-06-01T18:07:17.214Z,23.20
2019-06-01T18:09:46.293Z,23.00
2019-06-01T18:12:15.228Z,22.70
2019-06-01T18:14:44.213Z,22.50
2019-06-01T18:17:13.358Z,22.30
2019-06-01T18:19:42.465Z,22.20
2019-06-01T18:22:11.349Z,22.00
2019-06-01T18:24:40.170Z,21.80
2019-06-01T18:27:09.198Z,21.70
2019-06-01T18:29:41.043Z,21.50
2019-06-01T18:32:09.526Z,21.30
2019-06-01T18:34:38.393Z,21.10
2019-06-01T18:37:07.562Z,21.00
2019-06-01T18:39:36.418Z,20.90
2019-06-01T18:42:06.269Z,20.70
2019-06-01T18:44:35.306Z,20.50
2019-06-01T18:47:05.537Z,20.30
2019-06-01T18:49:34.551Z,20.20
2019-06-01T18:52:04.164Z,20.10
2019-06-01T18:54:33.218Z,19.90
2019-06-01T18:57:11.995Z,19.70
2019-06-01T18:59:32.549Z,19.60
2019-06-01T19:02:01.408Z,19.40
2019-06-01T19:04:30.266Z,19.30
2019-06-01T19:06:59.105Z,19.10
2019-06-01T19:09:28.070Z,19.00
2019-06-01T19:11:56.930Z,18.90
2019-06-01T19:14:25.720Z,18.70
2019-06-01T19:16:54.506Z,18.60
2019-06-01T19:19:23.633Z,18.50
2019-06-01T19:21:52.430Z,18.30
2019-06-01T19:24:21.218Z,18.20
2019-06-01T19:26:50.000Z,18.00
2019-06-01T19:29:18.777Z,17.80
2019-06-01T19:31:47.942Z,17.70
2019-06-01T19:34:17.570Z,17.60
2019-06-01T19:36:47.535Z,17.40
2019-06-01T19:39:17.397Z,17.30
2019-06-01T19:41:46.357Z,17.10
2019-06-01T19:44:15.799Z,17.00
2019-06-01T19:46:44.710Z,16.90
2019-06-01T19:49:15.052Z,16.70
2019-06-01T19:51:43.900Z,16.60
2019-06-01T19:54:12.876Z,16.50
2019-06-01T19:56:41.733Z,16.30
2019-06-01T19:59:11.741Z,16.20
2019-06-01T20:01:40.635Z,16.10
2019-06-01T20:04:10.416Z,15.90
2019-06-01T20:06:39.283Z,15.80
2019-06-01T20:09:08.622Z,15.70
2019-06-01T20:11:37.404Z,15.50
2019-06-01T20:14:06.346Z,15.40
2019-06-01T20:16:35.236Z,15.30
2019-06-01T20:19:04.182Z,15.20
2019-06-01T20:21:32.972Z,15.10
2019-06-01T20:24:01.761Z,15.00
2019-06-01T20:26:42.075Z,14.90
2019-06-01T20:29:01.441Z,14.90
2019-06-01T20:31:30.290Z,14.80
2019-06-01T20:33:59.141Z,14.70
2019-06-01T20:36:28.167Z,14.60
2019-06-01T20:38:56.933Z,14.50
2019-06-01T20:41:25.751Z,14.40
2019-06-01T20:43:54.509Z,14.40
2019-06-01T20:46:23.430Z,14.30
2019-06-01T20:48:52.585Z,14.30
2019-06-01T20:51:21.372Z,14.20
2019-06-01T20:53:50.545Z,14.20
2019-06-01T20:56:19.600Z,14.10
2019-06-01T20:58:48.814Z,14.10
2019-06-01T21:01:17.715Z,14.10
2019-06-01T21:03:46.538Z,14.00
2019-06-01T21:06:15.812Z,13.90
2019-06-01T21:08:44.849Z,13.90
2019-06-01T21:11:13.982Z,13.80
2019-06-01T21:13:43.245Z,13.80
2019-06-01T21:16:12.022Z,13.70
2019-06-01T21:18:40.878Z,13.70
2019-06-01T21:21:09.714Z,13.60
2019-06-01T21:23:38.493Z,13.60
2019-06-01T21:26:07.357Z,13.50
2019-06-01T21:28:36.153Z,13.50
2019-06-01T21:31:04.998Z,13.40
2019-06-01T21:33:33.854Z,13.30
2019-06-01T21:36:02.656Z,13.30
2019-06-01T21:38:31.510Z,13.20
2019-06-01T21:41:00.338Z,13.20
2019-06-01T21:43:34.555Z,13.20
2019-06-01T21:45:59.609Z,13.20
2019-06-01T21:48:28.389Z,13.10
2019-06-01T21:50:57.301Z,13.10
2019-06-01T21:53:26.640Z,13.10
2019-06-01T21:55:55.697Z,13.00
2019-06-01T21:58:24.642Z,13.00
2019-06-01T22:00:54.237Z,12.90
2019-06-01T22:03:23.346Z,12.90
2019-06-01T22:05:52.185Z,12.90
2019-06-01T22:08:21.184Z,12.90
2019-06-01T22:10:50.103Z,12.90
2019-06-01T22:13:22.325Z,12.80
2019-06-01T22:15:49.473Z,12.80
2019-06-01T22:18:19.476Z,12.80
2019-06-01T22:20:48.498Z,12.70
2019-06-01T22:23:18.004Z,12.70
2019-06-01T22:25:46.867Z,12.70
2019-06-01T22:28:15.702Z,12.70
2019-06-01T22:30:44.581Z,12.70
2019-06-01T22:33:13.710Z,12.60
2019-06-01T22:35:42.516Z,12.60
2019-06-01T22:38:11.301Z,12.60
2019-06-01T22:40:40.480Z,12.60
2019-06-01T22:43:09.251Z,12.60
2019-06-01T22:45:38.045Z,12.60
2019-06-01T22:48:07.145Z,12.60
2019-06-01T22:50:35.913Z,12.60
2019-06-01T22:53:04.787Z,12.50
2019-06-01T22:55:33.737Z,12.50
2019-06-01T22:58:02.617Z,12.50
2019-06-01T23:00:32.004Z,12.40
2019-06-01T23:03:01.099Z,12.40
2019-06-01T23:05:31.267Z,12.40
2019-06-01T23:08:00.258Z,12.40
2019-06-01T23:10:33.124Z,12.40
2019-06-01T23:12:59.706Z,12.40
2019-06-01T23:15:29.743Z,12.40
2019-06-01T23:17:58.997Z,12.30
2019-06-01T23:20:27.999Z,12.30
2019-06-01T23:22:56.837Z,12.30
2019-06-01T23:25:26.451Z,12.30
2019-06-01T23:27:55.273Z,12.30
2019-06-01T23:30:24.341Z,12.20
2019-06-01T23:32:53.187Z,12.20
2019-06-01T23:35:22.340Z,12.20
2019-06-01T23:37:51.834Z,12.10
2019-06-01T23:40:20.613Z,12.10
2019-06-01T23:42:49.381Z,12.10
2019-06-01T23:45:18.333Z,12.00
2019-06-01T23:47:47.227Z,11.90
2019-06-01T23:50:16.193Z,11.90
2019-06-01T23:52:45.025Z,11.90
2019-06-01T23:55:13.953Z,11.90
2019-06-01T23:57:42.721Z,11.90
